Main page
METAR-TAF:

METAR-TAF

Airports :

Nordholz Naval Airbase

Nordholz, Germany

latitude: 53-46N, longitude: 008-40E, elevation: 23 m

Current weather observation

The report was made 1 hour and 4 minutes ago, at 11:20 UTC
Wind 12 kt from the North
Temperature 14°C
Humidity 55%
Pressure 1034 hPa
Visibility 10 km or more
Few clouds at a height of 2500 ft
Broken clouds at a height of 31000 ft

METAR: ETMN 281120Z 36012KT 9999 FEW025 BKN310 14/05 Q1034 BLU+BLU+

Time: 14:24 (12:24 UTC)

Forecast

The report was made 2 hours and 7 minutes ago, at 10:17 UTC
Forecast valid from 28 at 11 UTC to 28 at 20 UTC
Wind 13 kt from the North with gusts up to 23 kt
Visibility 10 km or more
Scattered clouds at a height of 2500 ft

TAF: ETMN 281017Z 2811/2820 35013G23KT 9999 NSW SCT025

Weather observations and forecasts of more than 4000 airports (METAR and TAF reports).

The available stations are represented by yellow and red dots on the map.

Hover mouse over dot to see the name of the station.

Then click to see weather observations and forecasts.

To change the map : click on the green buttons with a black cross to zoom in, on the green button with a dash to zoom out, or on the green arrows for adjacent maps.


METAR-TAF: